TimeEDT,TemperatureF,Dew PointF,Humidity,Sea Level PressureIn,VisibilityMPH,Wind Direction,Wind SpeedMPH,Gust SpeedMPH,PrecipitationIn,Events,Conditions,WindDirDegrees,DateUTC
12:54 AM,66.9,62.1,84,29.87,10.0,Calm,Calm,-,N/A,,Clear,0,2013-06-17 04:54:00
1:54 AM,64.0,60.1,87,29.87,10.0,Calm,Calm,-,N/A,,Clear,0,2013-06-17 05:54:00
2:54 AM,66.9,62.1,84,29.86,10.0,WNW,6.9,-,N/A,,Clear,300,2013-06-17 06:54:00
3:54 AM,66.0,62.1,87,29.87,10.0,West,8.1,-,N/A,,Clear,280,2013-06-17 07:54:00
4:54 AM,64.9,61.0,87,29.88,10.0,WNW,4.6,-,N/A,,Clear,290,2013-06-17 08:54:00
5:54 AM,64.0,61.0,90,29.89,9.0,Calm,Calm,-,N/A,,Overcast,0,2013-06-17 09:54:00
6:54 AM,66.0,62.1,87,29.91,9.0,Calm,Calm,-,N/A,,Scattered Clouds,0,2013-06-17 10:54:00
7:54 AM,68.0,61.0,78,29.91,10.0,Calm,Calm,-,N/A,,Clear,0,2013-06-17 11:54:00
8:54 AM,73.0,63.0,71,29.92,10.0,West,9.2,-,N/A,,Scattered Clouds,260,2013-06-17 12:54:00
9:54 AM,75.9,63.0,64,29.90,10.0,West,10.4,-,N/A,,Scattered Clouds,270,2013-06-17 13:54:00
10:54 AM,78.1,62.1,58,29.89,10.0,WSW,11.5,-,N/A,,Scattered Clouds,240,2013-06-17 14:54:00
11:54 AM,79.0,59.0,50,29.89,10.0,SW,13.8,-,N/A,,Scattered Clouds,230,2013-06-17 15:54:00
12:54 PM,82.0,55.9,41,29.89,10.0,West,10.4,-,N/A,,Mostly Cloudy,260,2013-06-17 16:54:00
1:54 PM,84.0,55.9,38,29.88,10.0,Variable,6.9,-,N/A,,Clear,0,2013-06-17 17:54:00
2:54 PM,84.9,53.1,33,29.86,10.0,SW,6.9,17.3,N/A,,Unknown,230,2013-06-17 18:54:00
3:54 PM,86.0,53.1,32,29.84,10.0,WSW,10.4,-,N/A,,Scattered Clouds,250,2013-06-17 19:54:00
4:54 PM,78.1,55.0,45,29.87,10.0,Calm,Calm,-,N/A,,Mostly Cloudy,0,2013-06-17 20:54:00
5:54 PM,78.1,55.0,45,29.87,10.0,Calm,Calm,-,N/A,,Scattered Clouds,0,2013-06-17 21:54:00
6:54 PM,78.1,57.9,50,29.87,10.0,West,5.8,-,N/A,,Partly Cloudy,260,2013-06-17 22:54:00
7:54 PM,75.9,57.9,54,29.87,10.0,WNW,5.8,-,N/A,,Mostly Cloudy,290,2013-06-17 23:54:00
8:54 PM,71.1,59.0,66,29.88,10.0,Calm,Calm,-,N/A,,Clear,0,2013-06-18 00:54:00
9:54 PM,68.0,60.1,76,29.90,10.0,Calm,Calm,-,N/A,,Clear,0,2013-06-18 01:54:00
10:54 PM,64.9,61.0,87,29.91,10.0,Calm,Calm,-,N/A,,Clear,0,2013-06-18 02:54:00
11:54 PM,64.0,60.1,87,29.91,10.0,WNW,3.5,-,N/A,,Clear,300,2013-06-18 03:54:00